createdAt,value
2019-04-20T00:02:13.847Z,18.50
2019-04-20T00:04:37.010Z,17.73
2019-04-20T00:07:05.966Z,19.07
2019-04-20T00:09:37.979Z,19.07
2019-04-20T00:12:12.726Z,19.50
2019-04-20T00:14:37.199Z,19.85
2019-04-20T00:17:05.237Z,20.20
2019-04-20T00:19:40.776Z,19.25
2019-04-20T00:22:09.848Z,20.08
2019-04-20T00:24:39.339Z,19.67
2019-04-20T00:27:32.837Z,20.62
2019-04-20T00:29:58.682Z,20.25
2019-04-20T00:32:19.898Z,19.92
2019-04-20T00:34:44.147Z,20.27
2019-04-20T00:37:12.840Z,20.15
2019-04-20T00:39:44.766Z,21.27
2019-04-20T00:42:15.891Z,21.87
2019-04-20T00:44:45.820Z,20.45
2019-04-20T00:47:29.594Z,21.37
2019-04-20T00:49:57.682Z,21.42
2019-04-20T00:52:41.158Z,22.02
2019-04-20T00:54:45.261Z,21.57
2019-04-20T00:57:27.554Z,22.02
2019-04-20T01:00:05.799Z,20.72
2019-04-20T01:02:30.185Z,20.55
2019-04-20T01:05:04.401Z,21.17
2019-04-20T01:07:28.935Z,22.58
2019-04-20T01:09:47.898Z,21.95
2019-04-20T01:12:21.529Z,20.37
2019-04-20T01:14:52.107Z,22.00
2019-04-20T01:17:17.111Z,20.82
2019-04-20T01:19:48.905Z,21.85
2019-04-20T01:22:18.452Z,21.82
2019-04-20T01:24:48.274Z,22.90
2019-04-20T01:27:27.394Z,21.37
2019-04-20T01:29:51.613Z,22.45
2019-04-20T01:32:28.071Z,22.20
2019-04-20T01:34:55.310Z,21.97
2019-04-20T01:37:29.793Z,20.82
2019-04-20T01:39:50.823Z,23.32
2019-04-20T01:42:17.233Z,22.00
2019-04-20T01:44:49.221Z,22.22
2019-04-20T01:47:17.093Z,21.82
2019-04-20T01:49:47.780Z,22.80
2019-04-20T01:52:23.361Z,23.18
2019-04-20T01:55:12.901Z,22.73
2019-04-20T01:57:27.201Z,24.12
2019-04-20T02:00:01.801Z,24.80
2019-04-20T02:02:26.231Z,23.77
2019-04-20T02:05:06.121Z,24.45
2019-04-20T02:07:34.851Z,24.92
2019-04-20T02:10:02.822Z,25.27
2019-04-20T02:12:31.118Z,25.17
2019-04-20T02:15:02.293Z,24.72
2019-04-20T02:17:36.925Z,23.95
2019-04-20T02:20:19.851Z,25.02
2019-04-20T02:22:44.574Z,25.02
2019-04-20T02:24:57.866Z,23.80
2019-04-20T02:27:34.573Z,23.90
2019-04-20T02:30:23.855Z,24.15
2019-04-20T02:33:10.151Z,23.57
2019-04-20T02:35:40.445Z,22.65
2019-04-20T02:40:50.960Z,23.40
2019-04-20T02:43:09.422Z,24.18
2019-04-20T02:45:39.941Z,23.20
2019-04-20T02:48:13.478Z,24.43
2019-04-20T02:50:40.081Z,23.27
2019-04-20T02:58:25.460Z,24.40
2019-04-20T03:00:31.005Z,23.25
2019-04-20T03:02:48.911Z,23.55
2019-04-20T03:05:21.551Z,25.00
2019-04-20T03:07:58.628Z,24.45
2019-04-20T03:10:39.703Z,24.55
2019-04-20T03:13:05.346Z,25.45
2019-04-20T03:15:32.877Z,24.80
2019-04-20T03:18:03.562Z,25.48
2019-04-20T03:20:36.841Z,25.82
2019-04-20T03:23:19.680Z,25.45
2019-04-20T03:25:39.750Z,25.52
2019-04-20T03:28:07.015Z,25.52
2019-04-20T03:31:18.393Z,25.85
2019-04-20T03:35:41.815Z,25.55
2019-04-20T03:38:07.464Z,24.60
2019-04-20T03:40:29.395Z,23.67
2019-04-20T03:42:46.621Z,24.25
2019-04-20T03:45:19.294Z,23.52
2019-04-20T03:47:55.944Z,23.12
2019-04-20T03:50:39.397Z,22.48
2019-04-20T03:53:11.269Z,22.70
2019-04-20T03:55:35.585Z,23.38
2019-04-20T03:58:14.326Z,22.80
2019-04-20T04:00:43.305Z,23.50
2019-04-20T04:03:21.426Z,23.90
2019-04-20T04:05:42.033Z,22.73
2019-04-20T04:08:05.112Z,23.05
2019-04-20T04:10:40.961Z,23.70
2019-04-20T04:13:01.051Z,23.15
2019-04-20T04:15:29.664Z,22.82
2019-04-20T04:18:07.366Z,23.38
2019-04-20T04:20:38.775Z,23.27
2019-04-20T04:23:16.711Z,23.00
2019-04-20T04:25:40.527Z,23.20
2019-04-20T04:28:13.831Z,22.90
2019-04-20T04:30:40.477Z,22.98
2019-04-20T04:33:40.289Z,23.27
2019-04-20T04:35:48.202Z,23.25
2019-04-20T04:38:24.013Z,23.38
2019-04-20T04:40:56.677Z,24.25
2019-04-20T04:43:19.911Z,23.80
2019-04-20T04:45:32.260Z,24.75
2019-04-20T04:48:02.011Z,23.62
2019-04-20T04:50:31.850Z,24.10
2019-04-20T04:53:09.342Z,23.65
2019-04-20T04:55:41.740Z,24.12
2019-04-20T04:58:02.097Z,23.05
2019-04-20T05:00:33.163Z,23.52
2019-04-20T05:03:22.046Z,23.12
2019-04-20T05:05:57.215Z,22.48
2019-04-20T05:08:13.351Z,23.95
2019-04-20T05:10:34.920Z,21.87
2019-04-20T05:13:03.355Z,22.77
2019-04-20T05:15:46.115Z,23.05
2019-04-20T05:18:27.636Z,23.18
2019-04-20T05:20:54.654Z,22.73
2019-04-20T05:23:20.846Z,22.55
2019-04-20T05:26:03.751Z,21.68
2019-04-20T05:28:20.742Z,22.13
2019-04-20T05:31:03.537Z,22.75
2019-04-20T05:33:48.880Z,21.68
2019-04-20T05:36:19.277Z,21.33
2019-04-20T05:38:54.648Z,20.95
2019-04-20T05:41:17.021Z,21.52
2019-04-20T05:43:49.668Z,20.45
2019-04-20T05:46:22.385Z,20.23
2019-04-20T05:49:00.809Z,19.92
2019-04-20T05:51:29.431Z,20.97
2019-04-20T05:53:51.438Z,20.25
2019-04-20T05:56:31.691Z,20.55
2019-04-20T05:58:56.631Z,17.80
2019-04-20T06:01:29.934Z,16.80
2019-04-20T06:03:55.620Z,15.63
2019-04-20T06:06:29.202Z,16.05
2019-04-20T06:09:00.032Z,14.00
2019-04-20T06:11:28.391Z,14.07
2019-04-20T06:13:47.043Z,13.98
2019-04-20T06:16:30.570Z,15.60
2019-04-20T06:19:08.647Z,13.58
2019-04-20T06:21:52.981Z,13.65
2019-04-20T06:24:11.858Z,14.50
2019-04-20T06:28:58.244Z,15.18
2019-04-20T06:31:35.972Z,15.05
2019-04-20T06:36:47.500Z,14.05
2019-04-20T06:39:18.688Z,14.03
2019-04-20T06:42:02.003Z,17.30
2019-04-20T06:44:17.736Z,15.63
2019-04-20T06:46:46.727Z,15.08
2019-04-20T06:49:18.327Z,13.40
2019-04-20T06:51:47.368Z,13.45
2019-04-20T06:54:07.254Z,16.32
2019-04-20T06:56:48.993Z,14.10
2019-04-20T06:59:27.152Z,13.10
2019-04-20T07:01:57.054Z,12.47
2019-04-20T07:04:38.922Z,12.93
2019-04-20T07:06:56.291Z,12.05
2019-04-20T07:09:38.664Z,11.90
2019-04-20T07:11:50.469Z,12.40
2019-04-20T07:14:08.387Z,12.35
2019-04-20T07:16:57.380Z,12.37
2019-04-20T07:22:10.530Z,11.97
2019-04-20T07:24:40.556Z,11.50
2019-04-20T07:27:01.706Z,11.78
2019-04-20T07:29:36.914Z,11.30
2019-04-20T07:31:58.875Z,12.23
2019-04-20T07:34:33.486Z,11.45
2019-04-20T07:37:33.049Z,11.48
2019-04-20T07:39:32.768Z,11.53
2019-04-20T07:42:08.934Z,11.25
2019-04-20T07:44:44.306Z,11.60
2019-04-20T07:47:13.948Z,11.80
2019-04-20T07:49:37.399Z,11.35
2019-04-20T07:51:47.756Z,11.20
2019-04-20T07:54:53.048Z,11.05
2019-04-20T07:57:03.519Z,10.53
2019-04-20T07:59:27.640Z,11.25
2019-04-20T08:02:16.186Z,10.82
2019-04-20T08:04:36.399Z,10.98
2019-04-20T08:07:00.583Z,11.25
2019-04-20T08:09:34.996Z,11.57
2019-04-20T08:12:18.888Z,12.10
2019-04-20T08:14:57.520Z,12.65
2019-04-20T08:17:31.431Z,11.25
2019-04-20T08:19:51.187Z,12.33
2019-04-20T08:22:27.062Z,12.07
2019-04-20T08:24:52.249Z,11.60
2019-04-20T08:27:12.382Z,11.50
2019-04-20T08:29:52.994Z,12.25
2019-04-20T08:32:31.212Z,11.73
2019-04-20T08:35:09.476Z,12.40
2019-04-20T08:37:32.079Z,12.65
2019-04-20T08:40:10.295Z,12.20
2019-04-20T08:42:40.474Z,11.90
2019-04-20T08:47:50.233Z,11.65
2019-04-20T08:50:09.495Z,11.50
2019-04-20T08:52:55.569Z,11.93
2019-04-20T08:55:05.377Z,12.18
2019-04-20T08:57:17.898Z,12.13
2019-04-20T08:59:48.226Z,12.88
2019-04-20T09:02:18.734Z,12.80
2019-04-20T09:04:55.245Z,13.53
2019-04-20T09:07:21.667Z,12.88
2019-04-20T09:10:12.967Z,13.32
2019-04-20T09:12:36.950Z,13.78
2019-04-20T09:14:48.795Z,13.88
2019-04-20T09:17:29.926Z,14.23
2019-04-20T09:19:55.853Z,13.22
2019-04-20T09:22:34.041Z,14.38
2019-04-20T09:25:25.053Z,13.68
2019-04-20T09:27:33.631Z,14.50
2019-04-20T09:30:11.987Z,13.28
2019-04-20T09:32:40.255Z,13.62
2019-04-20T09:35:13.684Z,13.50
2019-04-20T09:37:45.824Z,14.80
2019-04-20T09:40:18.637Z,14.93
2019-04-20T09:42:29.720Z,13.78
2019-04-20T09:45:02.504Z,14.50
2019-04-20T09:47:36.829Z,13.98
2019-04-20T09:50:18.841Z,14.00
2019-04-20T09:52:47.754Z,13.80
2019-04-20T09:55:10.314Z,13.55
2019-04-20T09:57:43.815Z,12.98
2019-04-20T10:00:16.850Z,12.37
2019-04-20T10:02:32.996Z,13.93
2019-04-20T10:05:00.048Z,13.00
2019-04-20T10:07:32.517Z,12.25
2019-04-20T10:09:59.953Z,13.45
2019-04-20T10:12:29.346Z,13.22
2019-04-20T10:15:06.536Z,13.68
2019-04-20T10:17:30.481Z,12.63
2019-04-20T10:20:02.539Z,17.60
2019-04-20T10:22:28.769Z,13.53
2019-04-20T10:24:57.688Z,13.10
2019-04-20T10:27:26.462Z,13.80
2019-04-20T10:29:55.632Z,14.10
2019-04-20T10:32:31.101Z,13.75
2019-04-20T10:34:54.898Z,14.50
2019-04-20T10:37:25.095Z,13.93
2019-04-20T10:39:54.393Z,14.03
2019-04-20T10:42:23.881Z,13.95
2019-04-20T10:44:56.743Z,13.83
2019-04-20T10:47:23.102Z,14.40
2019-04-20T10:49:51.676Z,14.73
2019-04-20T10:52:20.196Z,13.68
2019-04-20T10:54:52.271Z,13.15
2019-04-20T10:57:21.607Z,13.30
2019-04-20T10:59:50.216Z,13.43
2019-04-20T11:02:19.515Z,13.18
2019-04-20T11:04:48.529Z,13.60
2019-04-20T11:07:20.680Z,13.50
2019-04-20T11:10:02.542Z,12.65
2019-04-20T11:12:20.152Z,12.20
2019-04-20T11:14:50.132Z,13.00
2019-04-20T11:17:18.782Z,12.23
2019-04-20T11:19:47.590Z,12.47
2019-04-20T11:22:16.684Z,12.23
2019-04-20T11:24:46.115Z,11.85
2019-04-20T11:27:14.672Z,12.95
2019-04-20T11:29:44.382Z,10.82
2019-04-20T11:32:14.186Z,10.43
2019-04-20T11:34:44.198Z,10.50
2019-04-20T11:37:13.081Z,10.50
2019-04-20T11:39:41.564Z,10.15
2019-04-20T11:42:10.119Z,10.13
2019-04-20T11:44:38.652Z,10.20
2019-04-20T11:47:08.357Z,9.75
2019-04-20T11:49:37.539Z,9.98
2019-04-20T11:52:06.145Z,9.63
2019-04-20T11:54:34.612Z,9.65
2019-04-20T11:57:04.690Z,9.18
2019-04-20T11:59:33.252Z,8.93
2019-04-20T12:02:05.562Z,9.60
2019-04-20T12:04:42.258Z,9.55
2019-04-20T12:07:06.735Z,8.90
2019-04-20T12:09:35.842Z,7.62
2019-04-20T12:12:15.628Z,8.23
2019-04-20T12:14:34.747Z,8.20
2019-04-20T12:17:05.896Z,7.87
2019-04-20T12:19:36.206Z,7.85
2019-04-20T12:22:05.606Z,8.50
2019-04-20T12:24:34.216Z,8.35
2019-04-20T12:27:06.869Z,8.78
2019-04-20T12:29:35.607Z,8.98
2019-04-20T12:32:06.912Z,8.75
2019-04-20T12:34:34.990Z,8.93
2019-04-20T12:37:05.030Z,8.48
2019-04-20T12:39:33.568Z,8.80
2019-04-20T12:42:04.713Z,8.53
2019-04-20T12:44:32.285Z,7.70
2019-04-20T12:47:05.776Z,8.43
2019-04-20T12:49:35.682Z,8.10
2019-04-20T12:52:06.453Z,7.95
2019-04-20T12:54:34.692Z,8.10
2019-04-20T12:57:06.732Z,8.73
2019-04-20T12:59:35.771Z,8.08
2019-04-20T13:02:05.193Z,8.18
2019-04-20T13:04:35.216Z,8.23
2019-04-20T13:07:05.901Z,8.23
2019-04-20T13:09:38.809Z,8.90
2019-04-20T13:12:12.012Z,8.35
2019-04-20T13:14:44.376Z,8.80
2019-04-20T13:17:14.454Z,8.98
2019-04-20T13:19:43.145Z,8.85
2019-04-20T13:22:12.825Z,8.73
2019-04-20T13:24:43.053Z,9.28
2019-04-20T13:27:14.389Z,8.50
2019-04-20T13:29:46.077Z,9.08
2019-04-20T13:32:13.921Z,9.08
2019-04-20T13:34:42.488Z,8.83
2019-04-20T13:37:11.518Z,9.38
2019-04-20T13:39:40.770Z,9.40
2019-04-20T13:42:15.853Z,9.13
2019-04-20T13:44:41.087Z,9.00
2019-04-20T13:47:09.602Z,9.43
2019-04-20T13:49:38.874Z,9.30
2019-04-20T13:52:08.657Z,8.23
2019-04-20T13:54:37.957Z,8.43
2019-04-20T13:57:08.397Z,7.75
2019-04-20T13:59:39.629Z,7.85
2019-04-20T14:02:10.806Z,6.67
2019-04-20T14:04:41.136Z,6.40
2019-04-20T14:07:12.536Z,7.90
2019-04-20T14:09:41.454Z,8.35
2019-04-20T14:12:16.734Z,7.42
2019-04-20T14:14:41.364Z,7.97
2019-04-20T14:17:10.765Z,8.28
2019-04-20T14:19:39.497Z,8.23
2019-04-20T14:22:08.292Z,7.60
2019-04-20T14:24:37.237Z,8.00
2019-04-20T14:27:06.591Z,7.25
2019-04-20T14:29:35.119Z,7.65
2019-04-20T14:32:05.354Z,7.95
2019-04-20T14:34:35.112Z,7.58
2019-04-20T14:37:04.787Z,7.85
2019-04-20T14:39:34.215Z,7.80
2019-04-20T14:42:02.726Z,8.60
2019-04-20T14:44:32.054Z,7.97
2019-04-20T14:47:05.653Z,7.70
2019-04-20T14:49:34.607Z,7.60
2019-04-20T14:52:04.393Z,7.90
2019-04-20T14:54:33.328Z,7.60
2019-04-20T14:57:07.781Z,8.00
2019-04-20T14:59:37.919Z,8.78
2019-04-20T15:02:08.549Z,8.25
2019-04-20T15:04:37.164Z,7.72
2019-04-20T15:07:06.649Z,8.45
2019-04-20T15:09:38.442Z,8.55
2019-04-20T15:12:08.776Z,8.30
2019-04-20T15:14:38.560Z,6.95
2019-04-20T15:17:08.957Z,7.50
2019-04-20T15:19:39.229Z,7.70
2019-04-20T15:22:09.492Z,7.25
2019-04-20T15:24:38.052Z,7.95
2019-04-20T15:27:06.769Z,7.10
2019-04-20T15:29:36.074Z,7.80
2019-04-20T15:32:05.953Z,7.10
2019-04-20T15:34:35.070Z,7.50
2019-04-20T15:37:04.386Z,7.62
2019-04-20T15:39:34.896Z,7.25
2019-04-20T15:42:03.508Z,6.95
2019-04-20T15:44:33.331Z,7.10
2019-04-20T15:47:07.031Z,6.92
2019-04-20T15:49:35.958Z,6.97
2019-04-20T15:52:05.803Z,7.62
2019-04-20T15:54:35.606Z,7.05
2019-04-20T15:57:14.212Z,7.10
2019-04-20T15:59:35.683Z,7.70
2019-04-20T16:02:07.186Z,6.75
2019-04-20T16:04:41.147Z,6.60
2019-04-20T16:07:08.528Z,6.95
2019-04-20T16:09:37.891Z,7.03
2019-04-20T16:12:06.877Z,6.80
2019-04-20T16:14:35.525Z,7.10
2019-04-20T16:17:06.842Z,7.28
2019-04-20T16:19:45.187Z,6.85
2019-04-20T16:22:05.833Z,7.15
2019-04-20T16:24:37.506Z,6.90
2019-04-20T16:27:07.868Z,7.08
2019-04-20T16:29:37.779Z,7.70
2019-04-20T16:32:06.719Z,7.58
2019-04-20T16:34:36.798Z,7.25
2019-04-20T16:37:06.414Z,7.47
2019-04-20T16:39:36.488Z,8.15
2019-04-20T16:42:06.576Z,8.10
2019-04-20T16:44:35.539Z,8.20
2019-04-20T16:47:04.176Z,8.28
2019-04-20T16:49:32.839Z,8.15
2019-04-20T16:52:01.364Z,8.28
2019-04-20T16:54:30.148Z,7.83
2019-04-20T16:57:02.810Z,8.23
2019-04-20T16:59:33.562Z,8.93
2019-04-20T17:02:02.459Z,9.38
2019-04-20T17:04:33.417Z,7.92
2019-04-20T17:07:03.141Z,9.10
2019-04-20T17:09:31.960Z,8.25
2019-04-20T17:12:01.598Z,8.43
2019-04-20T17:14:31.687Z,8.40
2019-04-20T17:17:04.181Z,8.13
2019-04-20T17:19:33.553Z,8.43
2019-04-20T17:22:03.454Z,9.18
2019-04-20T17:24:33.543Z,9.18
2019-04-20T17:27:06.427Z,9.93
2019-04-20T17:29:39.151Z,10.28
2019-04-20T17:32:09.734Z,9.33
2019-04-20T17:34:55.835Z,9.73
2019-04-20T17:37:08.875Z,10.18
2019-04-20T17:40:01.651Z,10.03
2019-04-20T17:42:25.159Z,10.28
2019-04-20T17:44:50.266Z,10.00
2019-04-20T17:47:26.413Z,10.38
2019-04-20T17:49:58.916Z,9.73
2019-04-20T17:52:28.455Z,10.32
2019-04-20T17:54:43.198Z,11.55
2019-04-20T17:57:13.081Z,10.28
2019-04-20T17:59:45.368Z,10.63
2019-04-20T18:02:23.848Z,11.45
2019-04-20T18:05:12.647Z,11.43
2019-04-20T18:07:40.925Z,10.72
2019-04-20T18:10:06.731Z,10.48
2019-04-20T18:12:26.747Z,11.15
2019-04-20T18:15:06.181Z,10.58
2019-04-20T18:17:32.122Z,11.00
2019-04-20T18:19:52.312Z,10.45
2019-04-20T18:22:21.523Z,11.00
2019-04-20T18:25:17.023Z,10.95
2019-04-20T18:27:37.413Z,11.90
2019-04-20T18:30:06.861Z,11.75
2019-04-20T18:32:23.248Z,11.85
2019-04-20T18:34:56.339Z,11.53
2019-04-20T18:37:25.122Z,10.85
2019-04-20T18:40:00.819Z,11.00
2019-04-20T18:42:30.335Z,11.08
2019-04-20T18:45:16.026Z,11.78
2019-04-20T18:47:47.666Z,11.33
2019-04-20T18:50:03.163Z,11.83
2019-04-20T18:52:25.213Z,11.97
2019-04-20T18:54:55.490Z,12.55
2019-04-20T18:57:28.667Z,12.15
2019-04-20T18:59:56.432Z,12.37
2019-04-20T19:02:29.337Z,12.18
2019-04-20T19:04:56.969Z,11.00
2019-04-20T19:07:25.818Z,12.45
2019-04-20T19:10:05.760Z,12.15
2019-04-20T19:12:34.004Z,12.30
2019-04-20T19:15:12.064Z,12.03
2019-04-20T19:17:45.066Z,12.03
2019-04-20T19:20:03.614Z,12.85
2019-04-20T19:22:32.209Z,12.30
2019-04-20T19:25:02.172Z,12.28
2019-04-20T19:27:39.976Z,12.43
2019-04-20T19:30:14.843Z,12.65
2019-04-20T19:32:45.051Z,12.85
2019-04-20T19:35:15.066Z,12.80
2019-04-20T19:37:40.679Z,12.98
2019-04-20T19:40:10.804Z,12.93
2019-04-20T19:42:45.481Z,13.08
2019-04-20T19:45:30.139Z,13.32
2019-04-20T19:47:51.869Z,13.90
2019-04-20T19:50:31.272Z,12.63
2019-04-20T19:53:05.753Z,12.98
2019-04-20T19:55:25.664Z,13.50
2019-04-20T19:57:57.558Z,13.38
2019-04-20T20:00:10.154Z,13.70
2019-04-20T20:02:39.596Z,14.58
2019-04-20T20:05:12.151Z,14.85
2019-04-20T20:07:43.766Z,13.98
2019-04-20T20:10:10.905Z,14.63
2019-04-20T20:12:45.143Z,14.53
2019-04-20T20:15:15.828Z,14.53
2019-04-20T20:18:03.617Z,14.38
2019-04-20T20:20:30.690Z,13.78
2019-04-20T20:22:45.123Z,14.38
2019-04-20T20:25:14.894Z,13.93
2019-04-20T20:27:51.226Z,14.23
2019-04-20T20:30:23.116Z,14.35
2019-04-20T20:33:01.075Z,14.80
2019-04-20T20:35:22.067Z,14.65
2019-04-20T20:37:50.267Z,14.50
2019-04-20T20:40:24.863Z,14.47
2019-04-20T20:42:58.061Z,14.53
2019-04-20T20:45:26.248Z,14.15
2019-04-20T20:48:03.874Z,13.68
2019-04-20T20:50:37.965Z,14.25
2019-04-20T20:53:02.443Z,14.03
2019-04-20T20:55:29.669Z,12.58
2019-04-20T20:57:59.272Z,14.03
2019-04-20T21:00:32.069Z,14.28
2019-04-20T21:02:58.166Z,13.68
2019-04-20T21:05:19.779Z,13.68
2019-04-20T21:07:51.110Z,13.68
2019-04-20T21:10:25.937Z,14.20
2019-04-20T21:12:54.096Z,13.80
2019-04-20T21:15:22.571Z,14.23
2019-04-20T21:18:17.411Z,14.58
2019-04-20T21:20:40.656Z,14.05
2019-04-20T21:23:06.956Z,14.63
2019-04-20T21:25:27.644Z,13.72
2019-04-20T21:27:52.899Z,14.73
2019-04-20T21:30:28.198Z,14.47
2019-04-20T21:32:54.216Z,14.10
2019-04-20T21:35:21.904Z,14.58
2019-04-20T21:37:56.972Z,14.70
2019-04-20T21:40:27.851Z,14.05
2019-04-20T21:42:58.163Z,14.55
2019-04-20T21:45:25.593Z,15.28
2019-04-20T21:47:52.603Z,15.48
2019-04-20T21:50:34.949Z,14.73
2019-04-20T21:52:55.102Z,15.95
2019-04-20T21:55:21.906Z,15.78
2019-04-20T21:57:53.943Z,15.95
2019-04-20T22:00:31.889Z,15.72
2019-04-20T22:02:57.578Z,15.20
2019-04-20T22:05:23.309Z,15.93
2019-04-20T22:07:52.552Z,15.30
2019-04-20T22:10:24.626Z,15.95
2019-04-20T22:12:58.693Z,15.60
2019-04-20T22:15:27.140Z,15.53
2019-04-20T22:17:52.613Z,16.00
2019-04-20T22:20:29.760Z,16.00
2019-04-20T22:23:03.079Z,16.65
2019-04-20T22:25:37.385Z,16.70
2019-04-20T22:27:51.876Z,16.85
2019-04-20T22:30:21.833Z,17.42
2019-04-20T22:32:53.630Z,17.45
2019-04-20T22:35:22.777Z,17.80
2019-04-20T22:38:01.158Z,16.93
2019-04-20T22:40:28.053Z,18.15
2019-04-20T22:42:57.807Z,17.92
2019-04-20T22:45:23.834Z,18.73
2019-04-20T22:48:01.160Z,18.77
2019-04-20T22:50:38.345Z,19.50
2019-04-20T22:53:12.348Z,18.52
2019-04-20T22:55:48.815Z,18.23
2019-04-20T22:58:04.536Z,18.48
2019-04-20T23:00:36.424Z,19.00
2019-04-20T23:02:54.964Z,19.23
2019-04-20T23:05:24.665Z,19.57
2019-04-20T23:07:53.248Z,19.70
2019-04-20T23:10:27.881Z,20.35
2019-04-20T23:12:56.189Z,21.68
2019-04-20T23:15:22.605Z,20.27
2019-04-20T23:17:53.610Z,20.48
2019-04-20T23:20:26.684Z,21.62
2019-04-20T23:22:52.944Z,20.88
2019-04-20T23:25:22.866Z,20.17
2019-04-20T23:28:00.323Z,20.82
2019-04-20T23:30:26.046Z,21.35
2019-04-20T23:32:52.048Z,20.82
2019-04-20T23:35:23.456Z,21.60
2019-04-20T23:37:50.829Z,19.35
2019-04-20T23:40:19.664Z,19.07
2019-04-20T23:42:49.864Z,18.23
2019-04-20T23:45:27.007Z,18.00
2019-04-20T23:47:55.688Z,17.55
2019-04-20T23:50:43.581Z,17.35
2019-04-20T23:53:12.142Z,17.98
2019-04-20T23:55:23.774Z,17.07
2019-04-20T23:57:58.102Z,17.42
